Aérodrome :
LOGIN :

S'inscrire | Disclaimer

   EN    FR    IT 

 










Légende :    VFR   VFR Marginal   IFR   IFR Intensif   IFR Très Intensif
Visi : 
Plafond : 
>= 8 km
>= 3000ft
5 à 8 km
1000 à 3000 ft
1500m à 5 km
500 à 1000 ft
800 à 1500m
200 à 500 ft
< 800m
< 200 ft
Symboles :   Orages  Brouillard  Fortes neiges  Fortes précipitations  Vent > 20 kt
SIGMETs :   Divers  Orages  Givrage  Turbulence  Onde Orograph.  Cendres Volcan.







- Altitude de l'aérodrome : 29 ft
- Code IATA : SVG


ENZV - Sola

DERNIER METAR :
  • 210050Z 12008KT CAVOK 13/04 Q1025

METARs EXPIRÉS :
  • 210020Z 14005KT CAVOK 12/05 Q1025
  • 202350Z VRB02KT CAVOK 13/05 Q1025
  • 202320Z 18003KT CAVOK 13/05 Q1025
  • 202250Z 15007KT CAVOK 13/06 Q1025
  • 202220Z 15006KT CAVOK 13/06 Q1025

TAF TAF ENZV
Valide du 21 à 00h jusqu'au 22 à 00h UTC


2100/2124 15005KT CAVOK
BECMG 2107/2109 19015KT
BECMG 2120/2122 VRB05KT
Pas de NOTAMs connus pour ce terrain.
2 SIGMETs publiés pour la FIR Norway (ENOR) :
 
Onde orographique forte
ENSV SIGMET B01 VALID 210100/210500 ENVV
ENOR NORWAY FIR OCNL SEV MTW FCST WI N6200 E00530 - N6200 E00730 - N6100 E00700 - N6100 E00600 - N6200 E00530 SFC/FL240 STNR WKN=
Onde orographique forte
ENBD SIGMET C01 VALID 210100/210500 ENVV
ENOR NORWAY FIR OCNL SEV MTW FCST WI N6200 E00530 - N6245 E00800 - N6230 E00845 - N6200 E00730 - N6200 E00530 SFC/FL240 STNR WKN=



MET'MAP, la Météo Aéronautique d'un coup d'oeil ! - Copyright ORBIFLY Décembre 2007 - Disclaimer

ORBIFLY MET'MAP TEAM :

Programmation & Développement : Alexandra Zaïnal
Conception & Développement : Baudouin d'Aumeries
Co-Programmation & Développement : Marc-Olivier Méhu
Soutien technique & logistique : Manuel Goepfert

Contact : metmap@orbifly.com




SOURCES & CREDITS :

   NOAA